createdAt,value
2019-01-25T00:01:48.989Z,-1.60
2019-01-25T00:04:18.882Z,-1.50
2019-01-25T00:06:50.419Z,-1.50
2019-01-25T00:09:20.366Z,-1.50
2019-01-25T00:11:50.032Z,-1.50
2019-01-25T00:14:19.769Z,-1.40
2019-01-25T00:16:50.277Z,-1.50
2019-01-25T00:19:20.029Z,-1.60
2019-01-25T00:21:49.869Z,-1.50
2019-01-25T00:24:19.736Z,-1.50
2019-01-25T00:26:49.358Z,-1.50
2019-01-25T00:29:19.005Z,-1.50
2019-01-25T00:31:48.619Z,-1.40
2019-01-25T00:34:18.296Z,-1.50
2019-01-25T00:36:47.976Z,-1.60
2019-01-25T00:39:17.613Z,-1.60
2019-01-25T00:41:47.229Z,-1.50
2019-01-25T00:44:16.937Z,-1.50
2019-01-25T00:46:46.629Z,-1.60
2019-01-25T00:49:16.253Z,-1.60
2019-01-25T00:51:46.019Z,-1.60
2019-01-25T00:54:15.665Z,-1.60
2019-01-25T00:56:45.360Z,-1.70
2019-01-25T00:59:15.077Z,-1.60
2019-01-25T01:01:44.849Z,-1.60
2019-01-25T01:04:14.508Z,-1.60
2019-01-25T01:06:44.368Z,-1.60
2019-01-25T01:09:14.076Z,-1.60
2019-01-25T01:11:44.036Z,-1.60
2019-01-25T01:14:13.724Z,-1.60
2019-01-25T01:16:43.357Z,-1.60
2019-01-25T01:19:12.981Z,-1.60
2019-01-25T01:21:42.653Z,-1.60
2019-01-25T01:24:12.576Z,-1.50
2019-01-25T01:26:42.202Z,-1.50
2019-01-25T01:29:11.817Z,-1.60
2019-01-25T01:31:41.547Z,-1.50
2019-01-25T01:34:11.165Z,-1.50
2019-01-25T01:36:40.805Z,-1.50
2019-01-25T01:39:10.853Z,-1.50
2019-01-25T01:41:40.490Z,-1.50
2019-01-25T01:44:10.452Z,-1.60
2019-01-25T01:46:40.125Z,-1.50
2019-01-25T01:49:10.569Z,-1.60
2019-01-25T01:51:40.255Z,-1.60
2019-01-25T01:54:10.392Z,-1.60
2019-01-25T01:56:40.041Z,-1.60
2019-01-25T01:59:10.429Z,-1.60
2019-01-25T02:01:40.129Z,-1.60
2019-01-25T02:04:10.616Z,-1.60
2019-01-25T02:06:40.245Z,-1.50
2019-01-25T02:09:10.671Z,-1.50
2019-01-25T02:11:40.302Z,-1.50
2019-01-25T02:14:10.409Z,-1.50
2019-01-25T02:16:40.033Z,-1.50
2019-01-25T02:19:10.470Z,-1.50
2019-01-25T02:21:40.088Z,-1.40
2019-01-25T02:24:10.404Z,-1.50
2019-01-25T02:26:41.250Z,-1.50
2019-01-25T02:29:10.868Z,-1.50
2019-01-25T02:31:40.736Z,-1.50
2019-01-25T02:34:10.466Z,-1.50
2019-01-25T02:36:40.578Z,-1.50
2019-01-25T02:39:10.691Z,-1.50
2019-01-25T02:41:40.327Z,-1.40
2019-01-25T02:44:10.530Z,-1.40
2019-01-25T02:46:40.215Z,-1.50
2019-01-25T02:49:10.569Z,-1.50
2019-01-25T02:51:40.176Z,-1.40
2019-01-25T02:54:10.441Z,-1.50
2019-01-25T02:56:40.093Z,-1.50
2019-01-25T02:59:10.465Z,-1.50
2019-01-25T03:01:40.557Z,-1.50
2019-01-25T03:04:10.798Z,-1.50
2019-01-25T03:06:40.466Z,-1.40
2019-01-25T03:09:11.084Z,-1.50
2019-01-25T03:11:40.697Z,-1.40
2019-01-25T03:14:10.447Z,-1.40
2019-01-25T03:16:41.124Z,-1.50
2019-01-25T03:19:10.755Z,-1.40
2019-01-25T03:21:40.374Z,-1.40
2019-01-25T03:24:11.078Z,-1.40
2019-01-25T03:26:40.689Z,-1.40
2019-01-25T03:29:10.549Z,-1.40
2019-01-25T03:31:40.252Z,-1.40
2019-01-25T03:34:10.514Z,-1.40
2019-01-25T03:36:40.506Z,-1.50
2019-01-25T03:39:10.502Z,-1.40
2019-01-25T03:41:40.458Z,-1.40
2019-01-25T03:44:10.709Z,-1.40
2019-01-25T03:46:40.350Z,-1.50
2019-01-25T03:49:12.273Z,-1.50
2019-01-25T03:51:42.286Z,-1.50
2019-01-25T03:54:12.480Z,-1.50
2019-01-25T03:56:42.194Z,-1.50
2019-01-25T03:59:12.230Z,-1.50
2019-01-25T04:01:41.845Z,-1.50
2019-01-25T04:04:11.593Z,-1.50
2019-01-25T04:06:41.288Z,-1.50
2019-01-25T04:09:11.067Z,-1.50
2019-01-25T04:11:40.688Z,-1.50
2019-01-25T04:14:10.944Z,-1.50
2019-01-25T04:16:40.647Z,-1.50
2019-01-25T04:19:10.565Z,-1.50
2019-01-25T04:21:40.453Z,-1.50
2019-01-25T04:24:11.121Z,-1.50
2019-01-25T04:26:40.789Z,-1.50
2019-01-25T04:29:10.518Z,-1.50
2019-01-25T04:31:40.269Z,-1.50
2019-01-25T04:34:10.551Z,-1.60
2019-01-25T04:36:40.309Z,-1.50
2019-01-25T04:39:10.577Z,-1.60
2019-01-25T04:41:40.206Z,-1.60
2019-01-25T04:44:10.517Z,-1.60
2019-01-25T04:46:40.409Z,-1.50
2019-01-25T04:49:10.555Z,-1.50
2019-01-25T04:51:40.181Z,-1.50
2019-01-25T04:54:10.501Z,-1.50
2019-01-25T04:56:40.409Z,-1.50
2019-01-25T04:59:10.550Z,-1.50
2019-01-25T05:01:41.157Z,-1.50
2019-01-25T05:04:10.780Z,-1.50
2019-01-25T05:06:40.452Z,-1.50
2019-01-25T05:09:10.957Z,-1.50
2019-01-25T05:11:40.937Z,-1.50
2019-01-25T05:14:10.573Z,-1.50
2019-01-25T05:16:40.262Z,-1.60
2019-01-25T05:19:10.500Z,-1.60
2019-01-25T05:21:40.138Z,-1.50
2019-01-25T05:24:12.138Z,-1.60
2019-01-25T05:26:41.841Z,-1.50
2019-01-25T05:29:11.458Z,-1.60
2019-01-25T05:31:41.101Z,-1.60
2019-01-25T05:34:10.718Z,-1.50
2019-01-25T05:36:40.501Z,-1.60
2019-01-25T05:39:10.532Z,-1.60
2019-01-25T05:41:40.205Z,-1.60
2019-01-25T05:44:10.521Z,-1.50
2019-01-25T05:46:40.456Z,-1.50
2019-01-25T05:49:10.590Z,-1.50
2019-01-25T05:51:40.489Z,-1.50
2019-01-25T05:54:10.603Z,-1.60
2019-01-25T05:56:43.205Z,-1.50
2019-01-25T05:59:12.886Z,-1.50
2019-01-25T06:01:45.924Z,-1.60
2019-01-25T06:04:16.105Z,-1.50
2019-01-25T06:06:46.049Z,-1.50
2019-01-25T06:09:20.448Z,-1.60
2019-01-25T06:11:50.077Z,-1.60
2019-01-25T06:14:19.772Z,-1.60
2019-01-25T06:16:49.538Z,-1.60
2019-01-25T06:19:19.224Z,-1.60
2019-01-25T06:21:48.880Z,-1.60
2019-01-25T06:24:18.497Z,-1.60
2019-01-25T06:26:48.276Z,-1.60
2019-01-25T06:29:18.872Z,-1.60
2019-01-25T06:31:48.525Z,-1.60
2019-01-25T06:34:18.196Z,-1.60
2019-01-25T06:36:47.822Z,-1.60
2019-01-25T06:39:17.449Z,-1.60
2019-01-25T06:41:47.147Z,-1.60
2019-01-25T06:44:16.873Z,-1.60
2019-01-25T06:46:47.702Z,-1.60
2019-01-25T06:49:17.321Z,-1.60
2019-01-25T06:51:46.950Z,-1.60
2019-01-25T06:54:16.573Z,-1.60
2019-01-25T06:56:46.197Z,-1.60
2019-01-25T06:59:22.474Z,-1.60
2019-01-25T07:01:55.615Z,-1.60
2019-01-25T07:04:25.545Z,-1.60
2019-01-25T07:06:55.177Z,-1.60
2019-01-25T07:09:25.452Z,-1.60
2019-01-25T07:11:55.077Z,-1.60
2019-01-25T07:14:25.126Z,-1.60
2019-01-25T07:16:54.746Z,-1.70
2019-01-25T07:19:24.465Z,-1.60
2019-01-25T07:21:54.100Z,-1.70
2019-01-25T07:24:23.856Z,-1.70
2019-01-25T07:26:53.562Z,-1.70
2019-01-25T07:29:23.516Z,-1.70
2019-01-25T07:31:53.136Z,-1.70
2019-01-25T07:34:22.813Z,-1.70
2019-01-25T07:36:52.446Z,-1.70
2019-01-25T07:39:27.081Z,-1.70
2019-01-25T07:41:59.604Z,-1.70
2019-01-25T07:44:28.594Z,-1.70
2019-01-25T07:46:58.758Z,-1.70
2019-01-25T07:49:28.501Z,-1.70
2019-01-25T07:51:58.496Z,-1.70
2019-01-25T07:54:28.297Z,-1.70
2019-01-25T07:56:57.995Z,-1.70
2019-01-25T07:59:27.645Z,-1.50
2019-01-25T08:01:57.406Z,-1.50
2019-01-25T08:04:27.453Z,-1.50
2019-01-25T08:06:57.075Z,-1.50
2019-01-25T08:09:26.701Z,-1.60
2019-01-25T08:11:56.317Z,-1.60
2019-01-25T08:14:26.014Z,-1.60
2019-01-25T08:16:55.866Z,-1.60
2019-01-25T08:19:25.577Z,-1.60
2019-01-25T08:21:55.218Z,-1.60
2019-01-25T08:24:25.163Z,-1.60
2019-01-25T08:26:55.111Z,-1.60
2019-01-25T08:29:28.111Z,-1.60
2019-01-25T08:31:56.500Z,-1.50
2019-01-25T08:34:26.213Z,-1.50
2019-01-25T08:36:55.920Z,-1.60
2019-01-25T08:39:25.602Z,-1.60
2019-01-25T08:41:55.244Z,-1.50
2019-01-25T08:44:25.139Z,-1.50
2019-01-25T08:46:54.923Z,-1.40
2019-01-25T08:49:24.610Z,-1.40
2019-01-25T08:51:54.746Z,-1.50
2019-01-25T08:54:24.444Z,-1.50
2019-01-25T08:56:54.200Z,-1.50
2019-01-25T08:59:23.823Z,-1.50
2019-01-25T09:01:53.494Z,-1.50
2019-01-25T09:04:23.186Z,-1.50
2019-01-25T09:06:52.886Z,-1.50
2019-01-25T09:09:22.506Z,-1.40
2019-01-25T09:11:52.144Z,-1.40
2019-01-25T09:14:21.812Z,-1.50
2019-01-25T09:16:51.447Z,-1.50
2019-01-25T09:19:21.124Z,-1.50
2019-01-25T09:21:50.763Z,-1.40
2019-01-25T09:24:20.654Z,-1.50
2019-01-25T09:26:50.401Z,-1.50
2019-01-25T09:29:20.026Z,-1.50
2019-01-25T09:31:49.664Z,-1.40
2019-01-25T09:34:19.401Z,-1.30
2019-01-25T09:36:49.061Z,-1.30
2019-01-25T09:39:18.848Z,-1.30
2019-01-25T09:41:48.484Z,-1.30
2019-01-25T09:44:18.392Z,-1.30
2019-01-25T09:46:48.052Z,-1.30
2019-01-25T09:49:17.914Z,-1.30
2019-01-25T09:51:47.524Z,-1.40
2019-01-25T09:54:17.212Z,-1.40
2019-01-25T09:56:46.829Z,-1.30
2019-01-25T09:59:16.525Z,-1.30
2019-01-25T10:01:46.140Z,-1.20
2019-01-25T10:04:15.814Z,-1.20
2019-01-25T10:06:45.472Z,-1.10
2019-01-25T10:09:15.381Z,-1.20
2019-01-25T10:11:45.016Z,-1.20
2019-01-25T10:14:14.641Z,-1.20
2019-01-25T10:16:44.329Z,-1.20
2019-01-25T10:19:13.950Z,-1.20
2019-01-25T10:21:43.722Z,-1.20
2019-01-25T10:24:13.419Z,-1.30
2019-01-25T10:26:43.051Z,-1.20
2019-01-25T10:29:13.055Z,-1.20
2019-01-25T10:31:42.869Z,-1.20
2019-01-25T10:34:12.825Z,-1.10
2019-01-25T10:36:42.478Z,-1.20
2019-01-25T10:39:12.210Z,-1.20
2019-01-25T10:41:41.845Z,-1.20
2019-01-25T10:44:11.469Z,-1.30
2019-01-25T10:46:41.077Z,-1.20
2019-01-25T10:49:10.902Z,-1.30
2019-01-25T10:51:40.560Z,-1.20
2019-01-25T10:54:11.000Z,-1.10
2019-01-25T10:56:42.040Z,-0.90
2019-01-25T10:59:11.840Z,-0.90
2019-01-25T11:01:41.997Z,-0.90
2019-01-25T11:04:11.916Z,-0.80
2019-01-25T11:06:41.628Z,-0.80
2019-01-25T11:09:11.347Z,-0.70
2019-01-25T11:11:40.952Z,-0.80
2019-01-25T11:14:11.101Z,-0.80
2019-01-25T11:16:40.717Z,-0.80
2019-01-25T11:19:10.859Z,-0.80
2019-01-25T11:21:40.484Z,-0.80
2019-01-25T11:24:11.120Z,-0.80
2019-01-25T11:26:40.742Z,-0.70
2019-01-25T11:29:10.882Z,-0.60
2019-01-25T11:31:40.656Z,-0.50
2019-01-25T11:34:11.454Z,-0.50
2019-01-25T11:36:41.191Z,-0.50
2019-01-25T11:39:11.758Z,-0.50
2019-01-25T11:41:41.517Z,-0.60
2019-01-25T11:44:11.257Z,-0.50
2019-01-25T11:46:41.322Z,-0.50
2019-01-25T11:49:11.023Z,-0.50
2019-01-25T11:51:41.932Z,-0.60
2019-01-25T11:54:11.563Z,-0.50
2019-01-25T11:56:41.276Z,-0.40
2019-01-25T11:59:10.969Z,-0.40
2019-01-25T12:01:40.975Z,-0.50
2019-01-25T12:04:11.698Z,-0.30
2019-01-25T12:06:41.328Z,-0.30
2019-01-25T12:09:11.029Z,-0.20
2019-01-25T12:11:40.711Z,-0.40
2019-01-25T12:14:10.979Z,-0.40
2019-01-25T12:16:40.603Z,-0.40
2019-01-25T12:19:11.362Z,-0.40
2019-01-25T12:21:40.993Z,-0.40
2019-01-25T12:24:10.953Z,-0.50
2019-01-25T12:26:40.589Z,-0.40
2019-01-25T12:29:10.898Z,-0.50
2019-01-25T12:31:40.849Z,-0.50
2019-01-25T12:34:11.041Z,-0.50
2019-01-25T12:36:40.713Z,-0.40
2019-01-25T12:39:11.299Z,-0.40
2019-01-25T12:41:41.308Z,-0.30
2019-01-25T12:44:10.956Z,-0.30
2019-01-25T12:46:40.586Z,-0.50
2019-01-25T12:49:10.968Z,-0.50
2019-01-25T12:51:49.094Z,-0.60
2019-01-25T12:54:19.052Z,-0.70
2019-01-25T12:56:48.777Z,-0.70
2019-01-25T12:59:18.709Z,-0.70
2019-01-25T13:01:50.279Z,-0.60
2019-01-25T13:04:21.065Z,-0.70
2019-01-25T13:06:50.703Z,-0.70
2019-01-25T13:09:20.316Z,-0.70
2019-01-25T13:11:50.117Z,-0.70
2019-01-25T13:14:19.749Z,-0.90
2019-01-25T13:16:50.785Z,-0.90
2019-01-25T13:19:20.797Z,-0.90
2019-01-25T13:21:50.464Z,-0.90
2019-01-25T13:24:20.356Z,-0.80
2019-01-25T13:26:50.317Z,-0.80
2019-01-25T13:29:26.035Z,-0.80
2019-01-25T13:31:51.404Z,-0.90
2019-01-25T13:34:21.359Z,-0.90
2019-01-25T13:36:57.037Z,-0.90
2019-01-25T13:39:22.589Z,-0.90
2019-01-25T13:41:52.431Z,-0.90
2019-01-25T13:44:22.385Z,-0.90
2019-01-25T13:46:53.150Z,-0.90
2019-01-25T13:49:23.065Z,-0.90
2019-01-25T13:51:52.810Z,-0.80
2019-01-25T13:54:22.884Z,-0.80
2019-01-25T13:56:52.501Z,-0.90
2019-01-25T13:59:22.209Z,-0.90
2019-01-25T14:01:56.127Z,-0.90
2019-01-25T14:04:23.172Z,-1.00
2019-01-25T14:06:53.042Z,-1.00
2019-01-25T14:09:23.229Z,-1.00
2019-01-25T14:11:52.881Z,-1.10
2019-01-25T14:14:22.526Z,-1.00
2019-01-25T14:16:52.147Z,-1.10
2019-01-25T14:19:22.065Z,-1.10
2019-01-25T14:21:51.786Z,-1.10
2019-01-25T14:24:21.443Z,-1.20
2019-01-25T14:26:51.069Z,-1.10
2019-01-25T14:29:21.314Z,-1.10
2019-01-25T14:31:51.111Z,-1.10
2019-01-25T14:34:20.740Z,-1.00
2019-01-25T14:36:50.352Z,-1.00
2019-01-25T14:39:20.445Z,-0.70
2019-01-25T14:41:50.072Z,-0.70
2019-01-25T14:44:19.993Z,-0.80
2019-01-25T14:46:49.689Z,-0.90
2019-01-25T14:49:19.385Z,-1.00
2019-01-25T14:51:49.011Z,-1.00
2019-01-25T14:54:18.624Z,-0.90
2019-01-25T14:56:48.424Z,-1.10
2019-01-25T14:59:18.208Z,-1.10
2019-01-25T15:01:47.894Z,-1.10
2019-01-25T15:04:17.618Z,-1.00
2019-01-25T15:06:47.542Z,-1.00
2019-01-25T15:09:17.247Z,-1.10
2019-01-25T15:11:47.006Z,-1.00
2019-01-25T15:14:17.777Z,-1.00
2019-01-25T15:16:47.398Z,-1.00
2019-01-25T15:19:17.176Z,-0.90
2019-01-25T15:21:47.093Z,-0.90
2019-01-25T15:24:17.077Z,-0.90
2019-01-25T15:26:46.704Z,-1.00
2019-01-25T15:29:16.338Z,-1.00
2019-01-25T15:31:46.117Z,-1.10
2019-01-25T15:34:17.165Z,-1.20
2019-01-25T15:36:47.036Z,-1.30
2019-01-25T15:39:16.721Z,-1.30
2019-01-25T15:41:46.361Z,-1.20
2019-01-25T15:44:16.099Z,-1.10
2019-01-25T15:46:45.741Z,-1.10
2019-01-25T15:49:15.387Z,-1.10
2019-01-25T15:51:45.373Z,-1.10
2019-01-25T15:54:15.177Z,-1.10
2019-01-25T15:56:45.224Z,-1.20
2019-01-25T15:59:14.924Z,-1.20
2019-01-25T16:01:44.716Z,-1.40
2019-01-25T16:04:14.345Z,-1.30
2019-01-25T16:06:44.233Z,-1.30
2019-01-25T16:09:15.510Z,-1.20
2019-01-25T16:11:45.512Z,-1.20
2019-01-25T16:14:18.098Z,-1.30
2019-01-25T16:16:47.000Z,-1.40
2019-01-25T16:19:16.707Z,-1.40
2019-01-25T16:21:46.379Z,-1.40
2019-01-25T16:24:16.233Z,-1.60
2019-01-25T16:26:45.961Z,-1.30
2019-01-25T16:29:15.615Z,-1.00
2019-01-25T16:31:45.265Z,-0.90
2019-01-25T16:34:14.976Z,-0.90
2019-01-25T16:36:44.951Z,-0.80
2019-01-25T16:39:14.645Z,-0.80
2019-01-25T16:41:44.290Z,-0.80
2019-01-25T16:44:14.234Z,-0.90
2019-01-25T16:46:43.940Z,-0.90
2019-01-25T16:49:13.805Z,-0.90
2019-01-25T16:51:43.728Z,-0.80
2019-01-25T16:54:13.854Z,-1.00
2019-01-25T16:56:43.605Z,-0.90
2019-01-25T16:59:13.553Z,-0.90
2019-01-25T17:01:43.187Z,-0.90
2019-01-25T17:04:13.158Z,-1.00
2019-01-25T17:06:43.112Z,-1.00
2019-01-25T17:09:12.805Z,-1.10
2019-01-25T17:11:42.445Z,-1.20
2019-01-25T17:14:12.079Z,-1.20
2019-01-25T17:16:41.705Z,-1.30
2019-01-25T17:19:11.354Z,-1.30
2019-01-25T17:21:41.086Z,-1.40
2019-01-25T17:24:11.441Z,-1.40
2019-01-25T17:26:41.069Z,-1.40
2019-01-25T17:29:11.473Z,-1.40
2019-01-25T17:31:41.478Z,-1.50
2019-01-25T17:34:11.326Z,-1.60
2019-01-25T17:36:41.117Z,-1.70
2019-01-25T17:39:16.661Z,-1.70
2019-01-25T17:41:46.390Z,-1.70
2019-01-25T17:44:16.051Z,-1.80
2019-01-25T17:46:47.081Z,-1.70
2019-01-25T17:49:16.722Z,-1.70
2019-01-25T17:51:46.409Z,-1.80
2019-01-25T17:54:16.144Z,-1.80
2019-01-25T17:56:46.939Z,-1.70
2019-01-25T17:59:16.568Z,-1.70
2019-01-25T18:01:47.365Z,-1.70
2019-01-25T18:04:17.149Z,-1.70
2019-01-25T18:06:46.765Z,-1.80
2019-01-25T18:09:16.391Z,-1.70
2019-01-25T18:11:46.208Z,-1.70
2019-01-25T18:14:15.842Z,-1.70
2019-01-25T18:16:45.723Z,-1.70
2019-01-25T18:19:15.358Z,-1.70
2019-01-25T18:21:45.049Z,-1.70
2019-01-25T18:24:14.764Z,-1.60
2019-01-25T18:26:44.393Z,-1.60
2019-01-25T18:29:21.687Z,-1.60
2019-01-25T18:31:51.439Z,-1.70
2019-01-25T18:34:21.098Z,-1.70
2019-01-25T18:36:50.869Z,-1.70
2019-01-25T18:39:20.512Z,-1.60
2019-01-25T18:41:50.270Z,-1.70
2019-01-25T18:44:20.356Z,-1.60
2019-01-25T18:46:50.133Z,-1.60
2019-01-25T18:49:19.762Z,-1.60
2019-01-25T18:51:49.572Z,-1.60
2019-01-25T18:54:19.467Z,-1.60
2019-01-25T18:56:50.008Z,-1.60
2019-01-25T18:59:19.629Z,-1.70
2019-01-25T19:01:49.331Z,-1.70
2019-01-25T19:04:19.040Z,-1.70
2019-01-25T19:06:48.857Z,-1.70
2019-01-25T19:09:18.469Z,-1.70
2019-01-25T19:11:48.092Z,-1.70
2019-01-25T19:14:17.802Z,-1.70
2019-01-25T19:16:47.703Z,-1.80
2019-01-25T19:19:18.374Z,-1.80
2019-01-25T19:21:48.382Z,-1.80
2019-01-25T19:24:18.166Z,-1.80
2019-01-25T19:26:47.784Z,-1.80
2019-01-25T19:29:17.465Z,-1.80
2019-01-25T19:31:47.642Z,-1.80
2019-01-25T19:34:17.425Z,-1.80
2019-01-25T19:36:47.153Z,-1.80
2019-01-25T19:39:16.827Z,-1.80
2019-01-25T19:41:46.785Z,-1.80
2019-01-25T19:44:16.447Z,-1.80
2019-01-25T19:46:46.184Z,-1.80
2019-01-25T19:49:15.879Z,-1.80
2019-01-25T19:51:45.682Z,-1.80
2019-01-25T19:54:15.552Z,-1.80
2019-01-25T19:56:45.436Z,-1.80
2019-01-25T19:59:15.178Z,-1.80
2019-01-25T20:01:44.949Z,-1.80
2019-01-25T20:04:14.655Z,-1.80
2019-01-25T20:06:44.406Z,-1.70
2019-01-25T20:09:14.666Z,-1.70
2019-01-25T20:11:44.332Z,-1.80
2019-01-25T20:14:14.044Z,-1.70
2019-01-25T20:16:43.675Z,-1.70
2019-01-25T20:19:13.471Z,-1.70
2019-01-25T20:21:44.075Z,-1.70
2019-01-25T20:24:13.777Z,-1.80
2019-01-25T20:26:43.400Z,-1.70
2019-01-25T20:29:13.137Z,-1.70
2019-01-25T20:31:42.782Z,-1.80
2019-01-25T20:34:12.537Z,-1.80
2019-01-25T20:36:42.714Z,-1.80
2019-01-25T20:39:13.492Z,-1.80
2019-01-25T20:41:43.126Z,-1.80
2019-01-25T20:44:13.329Z,-1.80
2019-01-25T20:46:43.041Z,-1.80
2019-01-25T20:49:13.097Z,-1.80
2019-01-25T20:51:43.706Z,-1.80
2019-01-25T20:54:13.470Z,-1.80
2019-01-25T20:56:43.324Z,-1.80
2019-01-25T20:59:12.936Z,-1.80
2019-01-25T21:01:43.218Z,-1.80
2019-01-25T21:04:12.841Z,-1.80
2019-01-25T21:06:42.548Z,-1.80
2019-01-25T21:09:12.445Z,-1.70
2019-01-25T21:11:42.524Z,-1.70
2019-01-25T21:14:12.508Z,-1.80
2019-01-25T21:16:42.137Z,-1.80
2019-01-25T21:19:11.945Z,-1.80
2019-01-25T21:21:41.568Z,-1.70
2019-01-25T21:24:12.345Z,-1.70
2019-01-25T21:26:42.028Z,-1.70
2019-01-25T21:29:12.005Z,-1.70
2019-01-25T21:31:41.634Z,-1.70
2019-01-25T21:34:12.366Z,-1.70
2019-01-25T21:36:42.301Z,-1.70
2019-01-25T21:39:12.297Z,-1.70
2019-01-25T21:41:42.045Z,-1.70
2019-01-25T21:44:12.162Z,-1.80
2019-01-25T21:46:41.817Z,-1.80
2019-01-25T21:49:12.567Z,-1.80
2019-01-25T21:51:42.185Z,-1.70
2019-01-25T21:54:12.338Z,-1.80
2019-01-25T21:56:42.110Z,-1.80
2019-01-25T21:59:12.337Z,-1.70
2019-01-25T22:01:41.958Z,-1.70
2019-01-25T22:04:12.468Z,-1.80
2019-01-25T22:06:42.161Z,-1.70
2019-01-25T22:09:12.802Z,-1.70
2019-01-25T22:11:42.430Z,-1.70
2019-01-25T22:14:12.575Z,-1.70
2019-01-25T22:16:42.193Z,-1.70
2019-01-25T22:19:12.539Z,-1.70
2019-01-25T22:21:42.155Z,-1.70
2019-01-25T22:24:12.938Z,-1.70
2019-01-25T22:26:43.735Z,-1.70
2019-01-25T22:29:13.437Z,-1.50
2019-01-25T22:31:43.133Z,-1.60
2019-01-25T22:34:12.756Z,-1.50
2019-01-25T22:36:42.889Z,-1.50
2019-01-25T22:39:12.757Z,-1.50
2019-01-25T22:41:42.760Z,-1.50
2019-01-25T22:44:12.650Z,-1.50
2019-01-25T22:46:42.881Z,-1.40
2019-01-25T22:49:12.735Z,-1.40
2019-01-25T22:51:42.818Z,-1.40
2019-01-25T22:54:13.093Z,-1.40
2019-01-25T22:56:42.998Z,-1.30
2019-01-25T22:59:12.837Z,-1.40
2019-01-25T23:01:42.589Z,-1.40
2019-01-25T23:04:40.496Z,-1.40
2019-01-25T23:07:18.500Z,-1.40
2019-01-25T23:10:02.608Z,-1.30
2019-01-25T23:12:33.477Z,-1.30
2019-01-25T23:15:03.181Z,-1.30
2019-01-25T23:17:33.321Z,-1.20
2019-01-25T23:20:03.370Z,-1.20
2019-01-25T23:22:33.055Z,-1.20
2019-01-25T23:25:02.777Z,-1.20
2019-01-25T23:27:32.486Z,-1.20
2019-01-25T23:30:02.261Z,-1.10
2019-01-25T23:32:33.305Z,-1.00
2019-01-25T23:35:03.369Z,-1.00
2019-01-25T23:37:33.305Z,-1.00
2019-01-25T23:40:03.074Z,-1.00
2019-01-25T23:42:32.989Z,-1.00
2019-01-25T23:45:02.618Z,-0.90
2019-01-25T23:47:32.305Z,-0.90
2019-01-25T23:50:02.022Z,-0.80
2019-01-25T23:52:31.652Z,-0.80
2019-01-25T23:55:01.381Z,-0.80
2019-01-25T23:57:31.000Z,-0.80
